createdAt,value
2022-11-15T00:00:14.198Z,6
2022-11-15T00:01:14.194Z,5
2022-11-15T00:02:14.250Z,6
2022-11-15T00:03:14.191Z,6
2022-11-15T00:04:14.197Z,6
2022-11-15T00:05:14.200Z,6
2022-11-15T00:06:14.186Z,5
2022-11-15T00:07:33.297Z,5
2022-11-15T00:08:14.242Z,6
2022-11-15T00:09:14.198Z,6
2022-11-15T00:10:14.244Z,6
2022-11-15T00:11:14.209Z,5
2022-11-15T00:12:14.197Z,5
2022-11-15T00:13:14.203Z,5
2022-11-15T00:14:14.222Z,6
2022-11-15T00:15:14.185Z,6
2022-11-15T00:16:14.207Z,6
2022-11-15T00:17:14.199Z,6
2022-11-15T00:18:14.203Z,6
2022-11-15T00:19:14.184Z,6
2022-11-15T00:20:14.198Z,6
2022-11-15T00:21:14.202Z,6
2022-11-15T00:22:14.187Z,6
2022-11-15T00:23:14.235Z,6
2022-11-15T00:24:14.274Z,6
2022-11-15T00:25:14.195Z,6
2022-11-15T00:26:14.221Z,6
2022-11-15T00:27:14.212Z,6
2022-11-15T00:28:14.200Z,6
2022-11-15T00:29:14.210Z,6
2022-11-15T00:30:14.202Z,6
2022-11-15T00:31:14.190Z,6
2022-11-15T00:32:14.193Z,6
2022-11-15T00:33:14.202Z,6
2022-11-15T00:34:14.200Z,6
2022-11-15T00:35:14.203Z,6
2022-11-15T00:36:14.197Z,5
2022-11-15T00:37:14.211Z,6
2022-11-15T00:38:14.213Z,6
2022-11-15T00:39:14.204Z,5
2022-11-15T00:40:14.215Z,5
2022-11-15T00:41:14.204Z,5
2022-11-15T00:42:14.208Z,6
2022-11-15T00:43:14.192Z,6
2022-11-15T00:44:14.208Z,6
2022-11-15T00:45:14.211Z,6
2022-11-15T00:46:14.191Z,6
2022-11-15T00:47:14.200Z,6
2022-11-15T00:48:14.206Z,6
2022-11-15T00:49:14.209Z,6
2022-11-15T00:50:15.544Z,6
2022-11-15T00:51:14.201Z,6
2022-11-15T00:52:14.203Z,6
2022-11-15T00:53:14.202Z,5
2022-11-15T00:54:14.207Z,6
2022-11-15T00:55:14.215Z,6
2022-11-15T00:56:14.200Z,6
2022-11-15T00:57:14.230Z,6
2022-11-15T00:58:14.198Z,6
2022-11-15T00:59:14.201Z,6
2022-11-15T01:00:14.200Z,5
2022-11-15T01:01:14.291Z,6
2022-11-15T01:02:14.196Z,6
2022-11-15T01:03:14.198Z,5
2022-11-15T01:04:14.204Z,6
2022-11-15T01:05:14.194Z,6
2022-11-15T01:06:14.200Z,6
2022-11-15T01:07:14.296Z,6
2022-11-15T01:08:14.221Z,6
2022-11-15T01:09:14.202Z,6
2022-11-15T01:10:14.211Z,6
2022-11-15T01:11:14.208Z,6
2022-11-15T01:12:14.197Z,5
2022-11-15T01:13:14.216Z,6
2022-11-15T01:14:14.205Z,6
2022-11-15T01:15:14.209Z,6
2022-11-15T01:16:14.219Z,6
2022-11-15T01:17:14.205Z,6
2022-11-15T01:18:14.196Z,6
2022-11-15T01:19:14.194Z,6
2022-11-15T01:20:14.208Z,6
2022-11-15T01:21:14.210Z,6
2022-11-15T01:22:14.211Z,6
2022-11-15T01:23:14.213Z,6
2022-11-15T01:24:14.203Z,6
2022-11-15T01:25:14.206Z,5
2022-11-15T01:26:14.204Z,5
2022-11-15T01:27:14.210Z,6
2022-11-15T01:28:14.219Z,6
2022-11-15T01:29:14.206Z,6
2022-11-15T01:30:14.214Z,6
2022-11-15T01:31:14.203Z,6
2022-11-15T01:32:14.198Z,6
2022-11-15T01:33:14.197Z,6
2022-11-15T01:34:14.237Z,6
2022-11-15T01:35:14.194Z,6
2022-11-15T01:36:14.192Z,6
2022-11-15T01:37:14.216Z,6
2022-11-15T01:38:14.213Z,5
2022-11-15T01:39:14.191Z,5
2022-11-15T01:40:14.211Z,6
2022-11-15T01:41:14.207Z,6
2022-11-15T01:42:14.208Z,6
2022-11-15T01:43:14.206Z,6
2022-11-15T01:44:14.239Z,6
2022-11-15T01:45:14.205Z,6
2022-11-15T01:46:14.198Z,5
2022-11-15T01:47:14.200Z,6
2022-11-15T01:48:14.226Z,6
2022-11-15T01:49:14.205Z,6
2022-11-15T01:50:14.199Z,6
2022-11-15T01:52:14.224Z,6
2022-11-15T01:53:14.264Z,5
2022-11-15T01:54:14.201Z,5
2022-11-15T01:55:14.209Z,5
2022-11-15T01:56:14.219Z,5
2022-11-15T01:57:14.198Z,6
2022-11-15T01:58:14.196Z,6
2022-11-15T01:59:14.230Z,5
2022-11-15T02:00:14.226Z,5
2022-11-15T02:01:14.282Z,6
2022-11-15T02:02:14.214Z,6
2022-11-15T02:03:14.227Z,5
2022-11-15T02:04:14.206Z,5
2022-11-15T02:05:14.201Z,5
2022-11-15T02:06:14.205Z,5
2022-11-15T02:07:14.305Z,6
2022-11-15T02:08:14.196Z,5
2022-11-15T02:09:14.202Z,5
2022-11-15T02:10:14.234Z,5
2022-11-15T02:11:14.197Z,5
2022-11-15T02:12:14.201Z,5
2022-11-15T02:13:14.231Z,5
2022-11-15T02:14:14.217Z,5
2022-11-15T02:15:14.197Z,5
2022-11-15T02:16:14.221Z,5
2022-11-15T02:17:14.213Z,5
2022-11-15T02:18:14.211Z,5
2022-11-15T02:19:14.199Z,5
2022-11-15T02:20:14.215Z,5
2022-11-15T02:21:14.227Z,6
2022-11-15T02:22:14.219Z,5
2022-11-15T02:23:14.218Z,5
2022-11-15T02:24:14.204Z,5
2022-11-15T02:25:14.202Z,5
2022-11-15T02:26:14.210Z,5
2022-11-15T02:27:14.212Z,5
2022-11-15T02:28:14.210Z,5
2022-11-15T02:29:14.209Z,5
2022-11-15T02:30:14.235Z,5
2022-11-15T02:31:14.213Z,5
2022-11-15T02:32:14.199Z,5
2022-11-15T02:33:14.200Z,5
2022-11-15T02:34:14.215Z,5
2022-11-15T02:35:14.209Z,5
2022-11-15T02:36:14.205Z,6
2022-11-15T02:37:14.203Z,5
2022-11-15T02:38:14.213Z,5
2022-11-15T02:39:14.207Z,5
2022-11-15T02:40:14.205Z,5
2022-11-15T02:41:14.259Z,5
2022-11-15T02:42:14.211Z,5
2022-11-15T02:43:14.217Z,5
2022-11-15T02:44:14.198Z,5
2022-11-15T02:45:14.223Z,5
2022-11-15T02:46:14.273Z,5
2022-11-15T02:47:14.215Z,5
2022-11-15T02:48:14.220Z,5
2022-11-15T02:49:14.218Z,5
2022-11-15T02:50:14.206Z,5
2022-11-15T02:51:14.267Z,5
2022-11-15T02:52:14.209Z,5
2022-11-15T02:53:14.220Z,5
2022-11-15T02:54:14.199Z,5
2022-11-15T02:55:14.225Z,5
2022-11-15T02:56:14.218Z,5
2022-11-15T02:57:14.209Z,5
2022-11-15T02:58:14.198Z,4
2022-11-15T02:59:14.213Z,5
2022-11-15T03:00:14.204Z,5
2022-11-15T03:01:14.271Z,5
2022-11-15T03:02:14.228Z,5
2022-11-15T03:03:14.221Z,5
2022-11-15T03:04:14.203Z,4
2022-11-15T03:05:14.205Z,5
2022-11-15T03:06:14.212Z,5
2022-11-15T03:07:14.245Z,5
2022-11-15T03:08:14.209Z,5
2022-11-15T03:09:14.216Z,5
2022-11-15T03:10:14.296Z,5
2022-11-15T03:11:14.213Z,4
2022-11-15T03:12:14.210Z,4
2022-11-15T03:13:14.216Z,5
2022-11-15T03:14:14.213Z,4
2022-11-15T03:15:14.225Z,4
2022-11-15T03:16:14.918Z,5
2022-11-15T03:17:14.228Z,5
2022-11-15T03:18:14.220Z,5
2022-11-15T03:19:14.208Z,5
2022-11-15T03:20:14.219Z,5
2022-11-15T03:21:14.209Z,5
2022-11-15T03:22:14.239Z,5
2022-11-15T03:23:14.232Z,5
2022-11-15T03:24:14.211Z,5
2022-11-15T03:25:14.211Z,5
2022-11-15T03:26:14.212Z,5
2022-11-15T03:27:14.252Z,5
2022-11-15T03:28:14.220Z,5
2022-11-15T03:29:14.243Z,4
2022-11-15T03:30:14.224Z,5
2022-11-15T03:31:14.352Z,5
2022-11-15T03:32:14.226Z,5
2022-11-15T03:33:14.203Z,5
2022-11-15T03:34:14.480Z,5
2022-11-15T03:35:14.271Z,5
2022-11-15T03:36:14.218Z,5
2022-11-15T03:37:14.218Z,5
2022-11-15T03:38:14.231Z,5
2022-11-15T03:39:20.166Z,5
2022-11-15T03:40:14.222Z,5
2022-11-15T03:41:14.212Z,5
2022-11-15T03:42:14.200Z,5
2022-11-15T03:43:14.219Z,5
2022-11-15T03:44:14.208Z,5
2022-11-15T03:45:14.218Z,5
2022-11-15T03:46:14.218Z,5
2022-11-15T03:47:14.210Z,5
2022-11-15T03:48:14.224Z,5
2022-11-15T03:49:14.237Z,5
2022-11-15T03:50:14.218Z,5
2022-11-15T03:51:14.211Z,5
2022-11-15T03:52:14.286Z,5
2022-11-15T03:53:14.243Z,5
2022-11-15T03:54:14.234Z,5
2022-11-15T03:55:14.216Z,5
2022-11-15T03:56:14.218Z,5
2022-11-15T03:57:14.208Z,5
2022-11-15T03:58:14.234Z,5
2022-11-15T03:59:14.215Z,5
2022-11-15T04:00:14.255Z,5
2022-11-15T04:01:14.254Z,5
2022-11-15T04:02:14.221Z,5
2022-11-15T04:03:14.253Z,5
2022-11-15T04:04:14.231Z,5
2022-11-15T04:05:14.239Z,5
2022-11-15T04:06:14.223Z,5
2022-11-15T04:07:14.368Z,5
2022-11-15T04:08:14.207Z,5
2022-11-15T04:09:14.231Z,5
2022-11-15T04:10:14.222Z,5
2022-11-15T04:11:14.217Z,5
2022-11-15T04:12:14.223Z,5
2022-11-15T04:13:14.222Z,5
2022-11-15T04:14:14.238Z,5
2022-11-15T04:15:14.218Z,5
2022-11-15T04:16:20.894Z,5
2022-11-15T04:17:14.234Z,5
2022-11-15T04:18:14.212Z,5
2022-11-15T04:19:14.226Z,5
2022-11-15T04:20:14.220Z,5
2022-11-15T04:21:14.214Z,5
2022-11-15T04:22:14.235Z,5
2022-11-15T04:23:14.219Z,5
2022-11-15T04:24:14.223Z,4
2022-11-15T04:25:14.220Z,5
2022-11-15T04:26:14.217Z,4
2022-11-15T04:27:14.225Z,5
2022-11-15T04:28:14.221Z,5
2022-11-15T04:29:14.213Z,5
2022-11-15T04:30:14.283Z,5
2022-11-15T04:31:14.241Z,6
2022-11-15T04:32:14.219Z,4
2022-11-15T04:33:14.234Z,5
2022-11-15T04:34:14.298Z,5
2022-11-15T04:35:14.220Z,5
2022-11-15T04:36:14.213Z,5
2022-11-15T04:37:14.234Z,3
2022-11-15T04:38:14.223Z,5
2022-11-15T04:39:14.216Z,5
2022-11-15T04:40:14.223Z,5
2022-11-15T04:41:14.216Z,5
2022-11-15T04:42:14.236Z,3
2022-11-15T04:43:14.218Z,5
2022-11-15T04:44:14.238Z,5
2022-11-15T04:45:14.238Z,4
2022-11-15T04:46:14.295Z,4
2022-11-15T04:47:14.213Z,5
2022-11-15T04:48:14.223Z,5
2022-11-15T04:49:14.236Z,5
2022-11-15T04:50:14.230Z,5
2022-11-15T04:51:14.222Z,5
2022-11-15T04:52:14.237Z,4
2022-11-15T04:53:14.234Z,5
2022-11-15T04:54:14.231Z,5
2022-11-15T04:55:14.221Z,5
2022-11-15T04:56:14.240Z,4
2022-11-15T04:57:14.232Z,4
2022-11-15T04:58:14.235Z,5
2022-11-15T04:59:14.246Z,5
2022-11-15T05:00:14.239Z,4
2022-11-15T05:01:14.275Z,5
2022-11-15T05:02:14.228Z,4
2022-11-15T05:03:14.222Z,4
2022-11-15T05:04:14.247Z,4
2022-11-15T05:05:14.247Z,4
2022-11-15T05:07:14.282Z,4
2022-11-15T05:08:14.247Z,5
2022-11-15T05:09:14.230Z,4
2022-11-15T05:10:14.216Z,5
2022-11-15T05:11:14.217Z,4
2022-11-15T05:12:14.224Z,4
2022-11-15T05:13:14.234Z,4
2022-11-15T05:14:14.222Z,4
2022-11-15T05:15:14.220Z,4
2022-11-15T05:17:14.268Z,4
2022-11-15T05:18:15.571Z,4
2022-11-15T05:19:14.248Z,4
2022-11-15T05:20:14.232Z,3
2022-11-15T05:21:14.224Z,4
2022-11-15T05:22:14.211Z,4
2022-11-15T05:23:14.225Z,4
2022-11-15T05:24:14.292Z,4
2022-11-15T05:25:14.213Z,4
2022-11-15T05:26:14.214Z,3
2022-11-15T05:27:14.233Z,4
2022-11-15T05:28:14.263Z,4
2022-11-15T05:29:14.213Z,3
2022-11-15T05:30:14.218Z,3
2022-11-15T05:31:14.233Z,4
2022-11-15T05:32:14.218Z,3
2022-11-15T05:33:14.233Z,3
2022-11-15T05:34:14.255Z,3
2022-11-15T05:35:14.228Z,3
2022-11-15T05:36:14.247Z,4
2022-11-15T05:37:14.235Z,4
2022-11-15T05:38:14.239Z,3
2022-11-15T05:39:14.223Z,3
2022-11-15T05:40:14.227Z,3
2022-11-15T05:41:14.240Z,3
2022-11-15T05:42:14.236Z,3
2022-11-15T05:43:14.226Z,3
2022-11-15T05:44:14.228Z,3
2022-11-15T05:45:14.234Z,4
2022-11-15T05:46:14.224Z,3
2022-11-15T05:47:14.218Z,3
2022-11-15T05:48:14.237Z,3
2022-11-15T05:49:14.254Z,3
2022-11-15T05:50:14.226Z,3
2022-11-15T05:51:14.228Z,3
2022-11-15T05:52:14.241Z,3
2022-11-15T05:53:14.231Z,3
2022-11-15T05:54:14.231Z,3
2022-11-15T05:55:14.243Z,3
2022-11-15T05:56:14.243Z,3
2022-11-15T05:57:14.246Z,3
2022-11-15T05:58:14.229Z,3
2022-11-15T05:59:14.234Z,3
2022-11-15T06:00:14.242Z,3
2022-11-15T06:01:14.234Z,3
2022-11-15T06:02:14.242Z,3
2022-11-15T06:03:14.232Z,3
2022-11-15T06:04:14.288Z,3
2022-11-15T06:05:14.222Z,3
2022-11-15T06:06:16.515Z,3
2022-11-15T06:07:14.406Z,3
2022-11-15T06:08:14.273Z,3
2022-11-15T06:09:14.235Z,3
2022-11-15T06:10:14.236Z,3
2022-11-15T06:11:14.310Z,3
2022-11-15T06:12:14.258Z,3
2022-11-15T06:13:14.239Z,3
2022-11-15T06:14:14.232Z,3
2022-11-15T06:15:14.243Z,3
2022-11-15T06:16:14.230Z,3
2022-11-15T06:17:14.236Z,3
2022-11-15T06:18:14.234Z,3
2022-11-15T06:19:14.243Z,3
2022-11-15T06:20:14.248Z,3
2022-11-15T06:21:14.257Z,3
2022-11-15T06:22:14.239Z,3
2022-11-15T06:23:14.238Z,3
2022-11-15T06:24:14.229Z,3
2022-11-15T06:25:14.231Z,3
2022-11-15T06:26:14.247Z,3
2022-11-15T06:27:14.282Z,3
2022-11-15T06:28:14.278Z,3
2022-11-15T06:29:14.223Z,2
2022-11-15T06:30:14.243Z,3
2022-11-15T06:31:14.248Z,3
2022-11-15T06:32:14.239Z,3
2022-11-15T06:33:14.289Z,3
2022-11-15T06:34:14.244Z,3
2022-11-15T06:35:14.247Z,3
2022-11-15T06:36:17.461Z,3
2022-11-15T06:37:14.255Z,3
2022-11-15T06:38:14.332Z,7
2022-11-15T06:39:14.247Z,9
2022-11-15T06:40:14.240Z,11
2022-11-15T06:41:14.259Z,12
2022-11-15T06:42:14.268Z,9
2022-11-15T06:43:14.240Z,7
2022-11-15T06:44:14.251Z,7
2022-11-15T06:45:14.291Z,6
2022-11-15T06:46:14.262Z,6
2022-11-15T06:47:14.279Z,6
2022-11-15T06:48:14.236Z,7
2022-11-15T06:49:14.234Z,5
2022-11-15T06:50:14.279Z,4
2022-11-15T06:51:14.266Z,3
2022-11-15T06:52:14.247Z,3
2022-11-15T06:53:14.243Z,5
2022-11-15T06:54:14.237Z,5
2022-11-15T06:55:14.263Z,5
2022-11-15T06:56:14.274Z,5
2022-11-15T06:57:14.253Z,4
2022-11-15T06:58:14.229Z,3
2022-11-15T06:59:14.247Z,2
2022-11-15T07:00:14.242Z,3
2022-11-15T07:01:14.350Z,3
2022-11-15T07:02:14.243Z,2
2022-11-15T07:03:14.232Z,2
2022-11-15T07:04:14.238Z,2
2022-11-15T07:05:14.240Z,2
2022-11-15T07:06:14.244Z,2
2022-11-15T07:07:14.288Z,2
2022-11-15T07:08:14.243Z,3
2022-11-15T07:09:14.396Z,3
2022-11-15T07:10:14.242Z,3
2022-11-15T07:11:14.232Z,3
2022-11-15T07:12:14.238Z,2
2022-11-15T07:13:14.248Z,3
2022-11-15T07:14:14.317Z,2
2022-11-15T07:15:14.235Z,2
2022-11-15T07:16:14.383Z,2
2022-11-15T07:17:14.256Z,2
2022-11-15T07:18:14.244Z,2
2022-11-15T07:19:14.250Z,2
2022-11-15T07:20:14.276Z,2
2022-11-15T07:21:14.270Z,2
2022-11-15T07:22:14.251Z,2
2022-11-15T07:23:14.234Z,2
2022-11-15T07:24:14.240Z,3
2022-11-15T07:25:14.258Z,6
2022-11-15T07:26:14.246Z,6
2022-11-15T07:27:14.240Z,10
2022-11-15T07:28:14.244Z,7
2022-11-15T07:29:14.259Z,5
2022-11-15T07:30:15.682Z,4
2022-11-15T07:31:14.256Z,5
2022-11-15T07:32:14.253Z,7
2022-11-15T07:33:14.249Z,6
2022-11-15T07:34:14.243Z,3
2022-11-15T07:35:14.246Z,3
2022-11-15T07:36:14.246Z,3
2022-11-15T07:37:14.237Z,3
2022-11-15T07:38:14.247Z,9
2022-11-15T07:39:14.248Z,9
2022-11-15T07:40:14.257Z,7
2022-11-15T07:41:14.251Z,5
2022-11-15T07:42:14.249Z,7
2022-11-15T07:43:14.236Z,13
2022-11-15T07:44:14.237Z,9
2022-11-15T07:45:14.242Z,7
2022-11-15T07:46:14.245Z,4
2022-11-15T07:47:14.233Z,3
2022-11-15T07:48:14.228Z,2
2022-11-15T07:49:14.252Z,2
2022-11-15T07:50:14.255Z,2
2022-11-15T07:51:14.715Z,2
2022-11-15T07:52:14.238Z,2
2022-11-15T07:53:14.237Z,2
2022-11-15T07:54:14.234Z,2
2022-11-15T07:55:14.254Z,2
2022-11-15T07:56:14.259Z,2
2022-11-15T07:57:14.239Z,2
2022-11-15T07:58:14.235Z,2
2022-11-15T07:59:14.232Z,2
2022-11-15T08:00:14.248Z,2
2022-11-15T08:01:14.315Z,2
2022-11-15T08:02:14.318Z,2
2022-11-15T08:03:14.241Z,2
2022-11-15T08:04:14.257Z,2
2022-11-15T08:05:14.237Z,2
2022-11-15T08:06:14.237Z,2
2022-11-15T08:07:14.339Z,2
2022-11-15T08:08:14.257Z,2
2022-11-15T08:09:14.251Z,2
2022-11-15T08:10:14.244Z,2
2022-11-15T08:11:14.278Z,2
2022-11-15T08:12:14.250Z,2
2022-11-15T08:13:14.271Z,2
2022-11-15T08:14:14.242Z,2
2022-11-15T08:15:14.248Z,2
2022-11-15T08:16:14.240Z,2
2022-11-15T08:17:14.237Z,2
2022-11-15T08:18:14.255Z,2
2022-11-15T08:19:14.238Z,2
2022-11-15T08:20:14.231Z,2
2022-11-15T08:21:18.316Z,2
2022-11-15T08:22:14.254Z,2
2022-11-15T08:23:14.238Z,2
2022-11-15T08:24:14.250Z,2
2022-11-15T08:25:14.247Z,2
2022-11-15T08:26:14.273Z,2
2022-11-15T08:27:14.305Z,2
2022-11-15T08:28:14.245Z,2
2022-11-15T08:29:14.242Z,2
2022-11-15T08:30:14.245Z,2
2022-11-15T08:31:14.237Z,2
2022-11-15T08:32:14.260Z,2
2022-11-15T08:33:14.245Z,2
2022-11-15T08:34:14.245Z,2
2022-11-15T08:35:14.243Z,2
2022-11-15T08:36:14.255Z,2
2022-11-15T08:37:14.242Z,2
2022-11-15T08:38:14.233Z,2
2022-11-15T08:39:14.255Z,2
2022-11-15T08:40:14.250Z,2
2022-11-15T08:41:14.288Z,2
2022-11-15T08:42:19.511Z,2
2022-11-15T08:43:14.244Z,2
2022-11-15T08:44:14.241Z,2
2022-11-15T08:45:14.288Z,2
2022-11-15T08:46:14.252Z,2
2022-11-15T08:47:14.266Z,2
2022-11-15T08:48:14.246Z,2
2022-11-15T08:49:14.240Z,2
2022-11-15T08:50:14.259Z,2
2022-11-15T08:51:14.252Z,2
2022-11-15T08:52:14.242Z,2
2022-11-15T08:53:14.251Z,2
2022-11-15T08:54:14.260Z,2
2022-11-15T08:55:15.988Z,2
2022-11-15T08:56:14.253Z,1
2022-11-15T08:57:14.252Z,2
2022-11-15T08:58:14.247Z,2
2022-11-15T08:59:14.245Z,2
2022-11-15T09:00:14.259Z,2
2022-11-15T09:01:18.391Z,2
2022-11-15T09:02:14.271Z,1
2022-11-15T09:03:14.236Z,2
2022-11-15T09:04:14.236Z,2
2022-11-15T09:05:14.250Z,2
2022-11-15T09:06:14.245Z,2
2022-11-15T09:07:14.278Z,2
2022-11-15T09:08:45.635Z,2
2022-11-15T09:09:14.264Z,2
2022-11-15T09:10:14.312Z,2
2022-11-15T09:11:14.252Z,2
2022-11-15T09:12:14.249Z,2
2022-11-15T09:13:14.452Z,2
2022-11-15T09:14:14.287Z,1
2022-11-15T09:15:14.240Z,2
2022-11-15T09:16:14.272Z,2
2022-11-15T09:17:14.267Z,2
2022-11-15T09:18:14.435Z,2
2022-11-15T09:19:14.270Z,1
2022-11-15T09:20:14.264Z,2
2022-11-15T09:21:14.271Z,1
2022-11-15T09:22:14.289Z,1
2022-11-15T09:23:14.417Z,1
2022-11-15T09:24:14.263Z,1
2022-11-15T09:25:14.267Z,1
2022-11-15T09:26:14.265Z,1
2022-11-15T09:27:14.285Z,1
2022-11-15T09:28:14.439Z,1
2022-11-15T09:29:14.255Z,2
2022-11-15T09:30:14.252Z,1
2022-11-15T09:31:19.288Z,1
2022-11-15T09:32:14.272Z,1
2022-11-15T09:33:14.248Z,1
2022-11-15T09:34:14.252Z,1
2022-11-15T09:35:14.255Z,2
2022-11-15T09:36:14.286Z,1
2022-11-15T09:37:15.232Z,1
2022-11-15T09:38:14.257Z,1
2022-11-15T09:39:14.265Z,1
2022-11-15T09:40:14.319Z,1
2022-11-15T09:41:14.262Z,1
2022-11-15T09:42:14.256Z,1
2022-11-15T09:43:14.267Z,1
2022-11-15T09:44:14.272Z,1
2022-11-15T09:45:14.305Z,1
2022-11-15T09:46:14.260Z,1
2022-11-15T09:47:14.281Z,2
2022-11-15T09:48:14.250Z,1
2022-11-15T09:49:14.268Z,1
2022-11-15T09:50:14.273Z,1
2022-11-15T09:51:14.263Z,1
2022-11-15T09:52:14.260Z,1
2022-11-15T09:53:14.272Z,1
2022-11-15T09:55:14.262Z,1
2022-11-15T09:56:14.271Z,1
2022-11-15T09:57:16.249Z,1
2022-11-15T09:58:14.300Z,1
2022-11-15T09:59:14.259Z,1
2022-11-15T10:01:14.332Z,1
2022-11-15T10:02:14.263Z,1
2022-11-15T10:03:14.284Z,1
2022-11-15T10:04:14.287Z,1
2022-11-15T10:05:14.266Z,1
2022-11-15T10:06:14.273Z,1
2022-11-15T10:07:14.381Z,1
2022-11-15T10:08:14.272Z,1
2022-11-15T10:09:14.252Z,1
2022-11-15T10:10:14.266Z,1
2022-11-15T10:11:42.757Z,1
2022-11-15T10:12:14.292Z,1
2022-11-15T10:13:14.267Z,1
2022-11-15T10:14:14.265Z,1
2022-11-15T10:15:14.301Z,1
2022-11-15T10:16:14.282Z,1
2022-11-15T10:17:14.306Z,1
2022-11-15T10:18:14.265Z,1
2022-11-15T10:19:14.259Z,1
2022-11-15T10:20:14.262Z,1
2022-11-15T10:21:14.304Z,1
2022-11-15T10:22:14.332Z,1
2022-11-15T10:23:14.278Z,1
2022-11-15T10:24:14.296Z,1
2022-11-15T10:25:14.266Z,1
2022-11-15T10:26:14.281Z,1
2022-11-15T10:28:14.272Z,1
2022-11-15T10:29:14.272Z,1
2022-11-15T10:30:14.296Z,1
2022-11-15T10:31:15.476Z,1
2022-11-15T10:32:14.273Z,1
2022-11-15T10:33:14.253Z,1
2022-11-15T10:34:14.268Z,1
2022-11-15T10:35:14.275Z,1
2022-11-15T10:36:14.333Z,1
2022-11-15T10:37:21.235Z,1
2022-11-15T10:38:14.267Z,1
2022-11-15T10:39:14.280Z,1
2022-11-15T10:40:14.291Z,1
2022-11-15T10:41:14.274Z,1
2022-11-15T10:42:17.770Z,1
2022-11-15T10:43:14.270Z,1
2022-11-15T10:44:14.259Z,1
2022-11-15T10:45:14.255Z,1
2022-11-15T10:46:44.481Z,1
2022-11-15T10:47:14.278Z,1
2022-11-15T10:48:14.265Z,1
2022-11-15T10:49:14.254Z,1
2022-11-15T10:50:14.264Z,1
2022-11-15T10:51:14.286Z,1
2022-11-15T10:52:14.260Z,1
2022-11-15T10:53:14.288Z,1
2022-11-15T10:54:18.437Z,1
2022-11-15T10:55:14.268Z,1
2022-11-15T10:56:14.271Z,1
2022-11-15T10:57:14.269Z,1
2022-11-15T10:58:14.277Z,1
2022-11-15T10:59:14.479Z,1
2022-11-15T11:00:14.278Z,1
2022-11-15T11:01:14.349Z,1
2022-11-15T11:02:14.276Z,1
2022-11-15T11:03:14.275Z,1
2022-11-15T11:04:14.278Z,1
2022-11-15T11:05:14.263Z,1
2022-11-15T11:06:14.291Z,1
2022-11-15T11:07:14.348Z,1
2022-11-15T11:08:14.318Z,1
2022-11-15T11:09:14.271Z,1
2022-11-15T11:10:44.216Z,1
2022-11-15T11:11:14.280Z,1
2022-11-15T11:12:14.256Z,1
2022-11-15T11:13:14.271Z,1
2022-11-15T11:14:14.271Z,1
2022-11-15T11:15:14.264Z,1
2022-11-15T11:16:14.279Z,1
2022-11-15T11:17:14.306Z,1
2022-11-15T11:18:14.269Z,1
2022-11-15T11:19:14.271Z,1
2022-11-15T11:20:14.267Z,1
2022-11-15T11:21:14.276Z,1
2022-11-15T11:22:14.289Z,1
2022-11-15T11:23:14.273Z,1
2022-11-15T11:24:14.277Z,1
2022-11-15T11:25:14.446Z,1
2022-11-15T11:26:14.277Z,1
2022-11-15T11:27:14.281Z,1
2022-11-15T11:28:14.294Z,1
2022-11-15T11:29:14.285Z,1
2022-11-15T11:30:14.261Z,1
2022-11-15T11:31:14.294Z,1
2022-11-15T11:32:14.271Z,1
2022-11-15T11:33:14.281Z,1
2022-11-15T11:34:14.273Z,1
2022-11-15T11:35:14.280Z,1
2022-11-15T11:36:14.291Z,1
2022-11-15T11:37:27.259Z,1
2022-11-15T11:38:16.326Z,1
2022-11-15T11:39:14.280Z,1
2022-11-15T11:40:14.273Z,1
2022-11-15T11:41:14.276Z,1
2022-11-15T11:42:14.286Z,1
2022-11-15T11:43:14.287Z,1
2022-11-15T11:44:14.274Z,1
2022-11-15T11:45:14.278Z,1
2022-11-15T11:46:14.270Z,1
2022-11-15T11:47:14.273Z,1
2022-11-15T11:48:14.292Z,1
2022-11-15T11:49:14.271Z,1
2022-11-15T11:50:14.337Z,1
2022-11-15T11:51:14.277Z,1
2022-11-15T11:52:14.325Z,1
2022-11-15T11:53:14.272Z,1
2022-11-15T11:54:14.275Z,1
2022-11-15T11:55:14.271Z,1
2022-11-15T11:56:14.287Z,1
2022-11-15T11:57:14.337Z,1
2022-11-15T11:58:14.269Z,1
2022-11-15T11:59:14.279Z,1
2022-11-15T12:00:14.276Z,1
2022-11-15T12:01:14.299Z,1
2022-11-15T12:02:14.352Z,1
2022-11-15T12:03:14.395Z,1
2022-11-15T12:04:14.266Z,1
2022-11-15T12:05:14.290Z,1
2022-11-15T12:06:14.260Z,1
2022-11-15T12:07:14.545Z,1
2022-11-15T12:08:14.276Z,1
2022-11-15T12:09:14.269Z,1
2022-11-15T12:10:14.267Z,1
2022-11-15T12:11:14.277Z,1
2022-11-15T12:12:14.290Z,1
2022-11-15T12:13:14.349Z,1
2022-11-15T12:14:14.333Z,1
2022-11-15T12:15:14.270Z,1
2022-11-15T12:16:14.271Z,1
2022-11-15T12:17:14.286Z,1
2022-11-15T12:18:14.274Z,1
2022-11-15T12:19:14.308Z,1
2022-11-15T12:20:14.267Z,1
2022-11-15T12:21:14.332Z,1
2022-11-15T12:22:14.274Z,1
2022-11-15T12:23:14.285Z,1
2022-11-15T12:24:14.279Z,1
2022-11-15T12:25:14.281Z,1
2022-11-15T12:26:14.278Z,1
2022-11-15T12:27:14.276Z,1
2022-11-15T12:28:14.282Z,1
2022-11-15T12:29:14.288Z,1
2022-11-15T12:30:14.281Z,1
2022-11-15T12:31:14.274Z,1
2022-11-15T12:32:14.283Z,1
2022-11-15T12:33:14.260Z,1
2022-11-15T12:34:14.296Z,1
2022-11-15T12:35:14.271Z,1
2022-11-15T12:36:14.277Z,1
2022-11-15T12:37:33.196Z,1
2022-11-15T12:38:14.278Z,1
2022-11-15T12:39:14.285Z,1
2022-11-15T12:40:14.280Z,1
2022-11-15T12:41:14.268Z,1
2022-11-15T12:42:14.278Z,1
2022-11-15T12:43:14.280Z,1
2022-11-15T12:44:14.279Z,1
2022-11-15T12:45:14.289Z,1
2022-11-15T12:46:14.287Z,1
2022-11-15T12:47:15.153Z,1
2022-11-15T12:48:14.270Z,2
2022-11-15T12:49:14.270Z,1
2022-11-15T12:50:14.313Z,1
2022-11-15T12:51:14.279Z,1
2022-11-15T12:52:14.313Z,1
2022-11-15T12:53:14.275Z,2
2022-11-15T12:54:14.281Z,1
2022-11-15T12:55:14.279Z,2
2022-11-15T12:56:14.277Z,2
2022-11-15T12:57:14.303Z,2
2022-11-15T12:58:14.273Z,2
2022-11-15T12:59:14.284Z,2
2022-11-15T13:00:14.288Z,2
2022-11-15T13:01:14.315Z,2
2022-11-15T13:02:14.267Z,2
2022-11-15T13:03:14.280Z,2
2022-11-15T13:04:14.289Z,2
2022-11-15T13:05:14.275Z,2
2022-11-15T13:06:14.275Z,2
2022-11-15T13:07:14.337Z,2
2022-11-15T13:08:14.271Z,2
2022-11-15T13:09:14.285Z,2
2022-11-15T13:10:14.292Z,2
2022-11-15T13:11:14.283Z,2
2022-11-15T13:12:14.272Z,2
2022-11-15T13:13:14.278Z,2
2022-11-15T13:14:14.292Z,2
2022-11-15T13:15:14.311Z,2
2022-11-15T13:16:14.287Z,2
2022-11-15T13:17:14.274Z,2
2022-11-15T13:18:14.299Z,2
2022-11-15T13:19:14.351Z,2
2022-11-15T13:20:14.279Z,2
2022-11-15T13:21:14.356Z,2
2022-11-15T13:22:14.289Z,2
2022-11-15T13:23:14.294Z,2
2022-11-15T13:24:14.286Z,2
2022-11-15T13:25:14.330Z,2
2022-11-15T13:26:14.340Z,2
2022-11-15T13:27:14.279Z,2
2022-11-15T13:28:14.283Z,2
2022-11-15T13:29:14.288Z,2
2022-11-15T13:30:14.288Z,2
2022-11-15T13:31:14.289Z,2
2022-11-15T13:32:14.280Z,2
2022-11-15T13:33:14.292Z,2
2022-11-15T13:34:36.550Z,2
2022-11-15T13:35:14.279Z,2
2022-11-15T13:36:14.271Z,2
2022-11-15T13:38:14.279Z,2
2022-11-15T13:39:14.277Z,2
2022-11-15T13:40:14.285Z,2
2022-11-15T13:41:14.285Z,2
2022-11-15T13:42:14.282Z,2
2022-11-15T13:43:14.299Z,2
2022-11-15T13:44:14.279Z,2
2022-11-15T13:45:14.289Z,2
2022-11-15T13:46:14.287Z,2
2022-11-15T13:47:14.298Z,2
2022-11-15T13:48:14.293Z,2
2022-11-15T13:49:14.276Z,2
2022-11-15T13:50:14.347Z,2
2022-11-15T13:51:14.289Z,2
2022-11-15T13:52:14.315Z,2
2022-11-15T13:53:14.279Z,2
2022-11-15T13:54:14.354Z,2
2022-11-15T13:55:14.366Z,2
2022-11-15T13:56:14.294Z,2
2022-11-15T13:57:14.296Z,2
2022-11-15T13:58:14.705Z,2
2022-11-15T13:59:14.281Z,2
2022-11-15T14:00:14.293Z,2
2022-11-15T14:01:14.400Z,2
2022-11-15T14:02:14.305Z,2
2022-11-15T14:03:14.279Z,2
2022-11-15T14:04:14.286Z,2
2022-11-15T14:05:14.296Z,2
2022-11-15T14:06:14.292Z,2
2022-11-15T14:07:14.328Z,2
2022-11-15T14:09:14.358Z,2
2022-11-15T14:10:14.290Z,2
2022-11-15T14:11:14.296Z,2
2022-11-15T14:12:14.295Z,2
2022-11-15T14:13:14.309Z,2
2022-11-15T14:14:14.291Z,2
2022-11-15T14:15:14.308Z,2
2022-11-15T14:16:14.302Z,2
2022-11-15T14:17:14.287Z,2
2022-11-15T14:18:14.293Z,2
2022-11-15T14:19:14.301Z,2
2022-11-15T14:20:14.303Z,2
2022-11-15T14:21:14.285Z,2
2022-11-15T14:22:14.294Z,2
2022-11-15T14:24:14.282Z,2
2022-11-15T14:25:14.289Z,2
2022-11-15T14:26:14.303Z,2
2022-11-15T14:27:14.305Z,2
2022-11-15T14:28:14.291Z,2
2022-11-15T14:29:14.301Z,2
2022-11-15T14:30:14.296Z,2
2022-11-15T14:31:14.304Z,2
2022-11-15T14:32:14.289Z,2
2022-11-15T14:33:14.301Z,2
2022-11-15T14:34:14.316Z,2
2022-11-15T14:35:14.295Z,2
2022-11-15T14:36:14.309Z,1
2022-11-15T14:37:14.307Z,2
2022-11-15T14:38:14.341Z,2
2022-11-15T14:39:14.316Z,2
2022-11-15T14:40:14.291Z,2
2022-11-15T14:41:14.295Z,2
2022-11-15T14:42:14.306Z,2
2022-11-15T14:43:14.303Z,2
2022-11-15T14:44:14.296Z,2
2022-11-15T14:45:14.290Z,2
2022-11-15T14:46:14.306Z,2
2022-11-15T14:47:14.304Z,2
2022-11-15T14:48:14.285Z,2
2022-11-15T14:49:14.307Z,2
2022-11-15T14:50:14.306Z,2
2022-11-15T14:51:14.292Z,2
2022-11-15T14:52:14.420Z,2
2022-11-15T14:53:14.305Z,2
2022-11-15T14:54:14.302Z,2
2022-11-15T14:55:14.293Z,2
2022-11-15T14:56:14.303Z,2